Alts de Monte Brisas, Puerto Rico
Current Conditions -  °F | °C
As of 3:53 AM on Saturday 01 Nov 2014 (Local Time) from TJNR Reporting Station
Clear Clear  
Wind Chill: 76°   Ceiling: Unl
Heat Index: 76°   Visibility: 10mi
Dew Point: 75°   Wind: 0mph
Humidity: 97%   Direction: NA
Pressure: 29.94"   Gusts: NA
Location:  18.3304°N, 65.6573°W
Report Text: TJNR 010753Z AUTO 00000KT 10SM CLR 24/24 A2994 RMK AO2 SLP138 T02440239 $
Loading
Personal Weather Stations






























Interactive Weather Map
Tropical Storm Tracking
New forecast layout! Learn more

10-Day Weather Forecast

Advertisements
Track Severe Weather on mobile